Time;durP1;ratioP1;P1;durP2;ratioP2;P2;SDS_P1;SDS_P2;PMS_P1;PMS_P2;Temp;Humidity;BMP_temperature;BMP_pressure;BME280_temperature;BME280_humidity;BME280_pressure;Samples;Min_cycle;Max_cycle;Signal;HPM_P1;HPM_P2
2021/03/20 00:01:30;;;;;;;0.75;0.68;;;;;;;17.14;36.54;102976.84;4966232;28;124407;-71
2021/03/20 00:03:56;;;;;;;1.88;0.90;;;;;;;17.12;36.46;102968.03;4966128;28;114395;-67
2021/03/20 00:06:27;;;;;;;2.33;0.80;;;;;;;17.13;36.68;102968.91;4966637;28;113912;-67
2021/03/20 00:08:54;;;;;;;4.85;0.93;;;;;;;17.13;36.65;102975.09;4965862;28;123996;-75
2021/03/20 00:11:22;;;;;;;2.28;0.98;;;;;;;17.13;36.42;102983.06;4964094;28;123737;-80
2021/03/20 00:13:49;;;;;;;4.65;1.17;;;;;;;17.12;36.48;102972.47;4965365;28;115573;-82
2021/03/20 00:16:16;;;;;;;4.07;1.17;;;;;;;17.09;36.50;102970.72;4967622;28;115245;-83
2021/03/20 00:18:43;;;;;;;4.55;1.20;;;;;;;17.10;36.52;102974.25;4966435;28;124466;-78
2021/03/20 00:21:09;;;;;;;6.03;1.17;;;;;;;17.10;36.46;102975.16;4965061;28;123866;-82
2021/03/20 00:23:35;;;;;;;2.10;0.90;;;;;;;17.11;36.50;102971.59;4948581;28;114387;-74
2021/03/20 00:26:01;;;;;;;1.83;0.93;;;;;;;17.07;36.80;102964.56;4950526;28;113045;-82
2021/03/20 00:28:29;;;;;;;3.28;1.20;;;;;;;17.09;36.64;102973.38;4965711;28;123915;-82
2021/03/20 00:31:00;;;;;;;4.07;1.00;;;;;;;17.06;36.61;102968.13;4964574;28;124538;-76
2021/03/20 00:33:27;;;;;;;3.83;0.98;;;;;;;17.08;36.55;102970.75;4963811;28;113939;-82
2021/03/20 00:35:57;;;;;;;1.95;0.80;;;;;;;17.09;36.58;102969.84;4964815;28;113199;-79
2021/03/20 00:38:24;;;;;;;5.35;1.00;;;;;;;17.06;36.50;102968.13;4965287;28;124259;-68
2021/03/20 00:40:52;;;;;;;4.20;0.90;;;;;;;17.06;36.71;102962.81;4964158;28;124104;-67
2021/03/20 00:43:18;;;;;;;2.08;0.98;;;;;;;17.05;36.63;102971.69;4963310;28;114284;-76
2021/03/20 00:45:44;;;;;;;4.55;1.02;;;;;;;17.04;36.70;102977.91;4965284;28;113520;-67
2021/03/20 00:48:15;;;;;;;4.57;1.05;;;;;;;17.02;36.40;102977.06;4965355;28;124432;-67
2021/03/20 00:50:41;;;;;;;1.90;0.70;;;;;;;17.02;36.60;102978.84;4963370;28;123833;-66
2021/03/20 00:53:12;;;;;;;3.08;0.90;;;;;;;17.05;36.46;102981.44;4964172;28;113679;-71
2021/03/20 00:55:38;;;;;;;1.27;0.75;;;;;;;17.03;36.59;102972.63;4965803;28;114183;-73
2021/03/20 00:58:24;;;;;;;1.98;1.10;;;;;;;17.02;36.49;102977.06;4947391;28;123044;-67
2021/03/20 01:00:53;;;;;;;2.88;0.93;;;;;;;17.03;36.51;102978.81;4964199;28;123920;-70
2021/03/20 01:03:19;;;;;;;5.00;1.10;;;;;;;17.02;36.58;102971.75;4964274;28;115743;-67
2021/03/20 01:05:46;;;;;;;1.27;0.68;;;;;;;17.00;36.63;102973.56;4965496;28;114944;-76
2021/03/20 01:08:12;;;;;;;3.75;1.23;;;;;;;16.96;36.66;102976.25;4964903;28;124109;-66
2021/03/20 01:10:39;;;;;;;1.92;1.00;;;;;;;16.92;36.47;102972.78;4947840;28;124881;-81
2021/03/20 01:13:06;;;;;;;3.75;1.00;;;;;;;16.92;36.62;102967.50;4966155;28;114486;-66
2021/03/20 01:15:32;;;;;;;2.60;1.00;;;;;;;16.91;36.46;102979.00;4966698;28;113392;-70
2021/03/20 01:17:59;;;;;;;7.40;1.38;;;;;;;16.88;36.49;102976.41;4969884;28;123014;-71
2021/03/20 01:20:27;;;;;;;3.38;0.88;;;;;;;16.82;36.55;102974.72;4961749;28;124261;-73
2021/03/20 01:22:53;;;;;;;2.33;1.00;;;;;;;16.86;36.50;102972.88;4964121;28;113688;-72
2021/03/20 01:25:20;;;;;;;3.63;0.80;;;;;;;16.82;36.27;102974.72;4965273;28;114613;-73
2021/03/20 01:27:53;;;;;;;4.45;0.95;;;;;;;16.86;36.32;102978.19;4963252;28;126543;-77
2021/03/20 01:30:24;;;;;;;2.88;1.40;;;;;;;16.86;36.46;102980.84;4964067;28;124292;-68
2021/03/20 01:32:50;;;;;;;3.17;0.95;;;;;;;16.86;36.46;102981.69;4963576;28;115163;-76
2021/03/20 01:35:16;;;;;;;2.92;0.85;;;;;;;16.90;36.55;102985.22;4964001;28;114198;-69
2021/03/20 01:37:42;;;;;;;1.60;1.00;;;;;;;16.88;36.23;102977.28;4964572;28;126244;-71
2021/03/20 01:40:11;;;;;;;5.95;0.93;;;;;;;16.89;36.40;102980.81;4964491;28;124526;-75
2021/03/20 01:42:44;;;;;;;3.22;1.05;;;;;;;16.90;36.33;102982.56;4964411;28;114067;-70
2021/03/20 01:45:10;;;;;;;3.35;1.00;;;;;;;16.91;36.48;102984.31;4964144;28;113508;-77
2021/03/20 01:48:00;;;;;;;3.00;1.02;;;;;;;16.89;36.42;102980.81;4963568;28;124101;-76
2021/03/20 01:50:34;;;;;;;1.95;0.70;;;;;;;16.89;36.41;102986.13;4912510;28;124145;-67
2021/03/20 01:53:13;;;;;;;4.43;1.10;;;;;;;16.88;36.37;102974.63;4962942;28;115214;-69
2021/03/20 01:55:40;;;;;;;4.18;1.30;;;;;;;16.88;36.48;102977.28;4962652;28;115539;-71
2021/03/20 01:58:06;;;;;;;4.50;0.90;;;;;;;16.87;36.28;102980.84;4964457;28;124230;-67
2021/03/20 02:00:44;;;;;;;7.93;1.75;;;;;;;16.87;36.32;102977.28;4963134;28;124083;-68
2021/03/20 02:03:13;;;;;;;4.60;0.82;;;;;;;16.88;36.42;102976.41;4963245;28;114634;-71
2021/03/20 02:05:39;;;;;;;1.63;0.75;;;;;;;16.85;36.44;102976.44;4963516;28;114118;-73
2021/03/20 02:08:08;;;;;;;5.53;1.42;;;;;;;16.87;36.38;102982.56;4962509;28;124782;-70
2021/03/20 02:10:37;;;;;;;2.08;0.95;;;;;;;16.88;36.46;102979.06;4963671;28;123987;-78
2021/03/20 02:13:09;;;;;;;2.33;1.25;;;;;;;16.86;36.36;102975.53;4961313;28;114173;-77
2021/03/20 02:15:56;;;;;;;3.13;1.17;;;;;;;16.85;36.49;102979.09;4963908;28;114793;-82
2021/03/20 02:18:51;;;;;;;3.67;0.75;;;;;;;16.86;36.52;102980.84;4963177;28;124982;-82
2021/03/20 02:21:33;;;;;;;3.45;0.80;;;;;;;16.84;36.45;102977.34;4956044;28;124640;-77
2021/03/20 02:24:36;;;;;;;2.60;0.98;;;;;;;16.81;36.32;102972.09;4964666;28;114335;-84
2021/03/20 02:27:30;;;;;;;2.42;0.80;;;;;;;16.82;36.41;102979.13;4963218;28;114390;-67
2021/03/20 02:30:32;;;;;;;3.53;1.02;;;;;;;16.79;36.34;102976.53;4964156;28;123965;-67
2021/03/20 02:33:05;;;;;;;2.50;1.00;;;;;;;16.79;36.39;102977.41;4942870;28;123918;-69
2021/03/20 02:35:42;;;;;;;1.70;0.80;;;;;;;16.79;36.48;102976.53;4964020;28;114548;-74
2021/03/20 02:38:41;;;;;;;4.15;1.25;;;;;;;16.83;36.44;102975.59;4964462;28;114273;-68
2021/03/20 02:41:35;;;;;;;7.95;1.33;;;;;;;16.80;36.26;102981.81;4963891;28;124707;-77
2021/03/20 02:44:26;;;;;;;6.55;1.10;;;;;;;16.78;36.34;102980.97;4964069;28;124467;-74
2021/03/20 02:46:58;;;;;;;2.55;1.10;;;;;;;16.79;36.43;102974.75;4963956;28;115510;-69
2021/03/20 02:49:42;;;;;;;4.47;1.33;;;;;;;16.77;36.51;102978.34;4949664;28;116023;-76
2021/03/20 02:52:18;;;;;;;2.20;0.80;;;;;;;16.78;36.56;102972.13;4963705;28;123084;-77
2021/03/20 02:54:52;;;;;;;4.90;1.23;;;;;;;16.77;36.29;102968.63;4964334;28;123808;-82
2021/03/20 02:57:32;;;;;;;5.78;0.90;;;;;;;16.77;36.35;102967.75;4963975;28;114039;-83
2021/03/20 03:00:24;;;;;;;10.23;1.00;;;;;;;16.76;36.27;102963.31;4966482;28;114036;-67
2021/03/20 03:02:53;;;;;;;3.13;0.80;;;;;;;16.76;36.19;102973.91;4966458;28;124093;-79
2021/03/20 03:05:25;;;;;;;4.20;0.82;;;;;;;16.75;36.22;102974.81;4966836;28;123970;-69
2021/03/20 03:07:55;;;;;;;2.05;0.95;;;;;;;16.73;36.17;102979.28;4967584;28;114828;-68
2021/03/20 03:10:36;;;;;;;1.85;1.02;;;;;;;16.74;36.23;102973.06;4967039;28;113376;-72
2021/03/20 03:13:09;;;;;;;2.13;1.13;;;;;;;16.74;36.16;102979.25;4965877;28;124022;-67
2021/03/20 03:15:41;;;;;;;3.85;1.20;;;;;;;16.70;36.13;102969.59;4966164;28;124406;-67
2021/03/20 03:18:16;;;;;;;3.75;0.98;;;;;;;16.71;36.31;102965.16;4966385;28;114048;-67
2021/03/20 03:20:46;;;;;;;4.55;1.00;;;;;;;16.69;36.16;102965.19;4966352;28;114003;-68
2021/03/20 03:23:16;;;;;;;2.67;0.90;;;;;;;16.71;36.18;102968.69;4966349;28;125022;-67
2021/03/20 03:25:46;;;;;;;2.97;0.93;;;;;;;16.70;36.20;102960.75;4965442;28;123993;-71
2021/03/20 03:28:20;;;;;;;5.30;1.40;;;;;;;16.69;35.95;102953.72;4966178;28;114695;-68
2021/03/20 03:30:46;;;;;;;;;;;;;;;16.70;36.15;102955.47;4971301;28;113986;-80
2021/03/20 03:33:19;;;;;;;2.38;0.90;;;;;;;16.67;36.09;102958.13;4971901;28;125522;-73
2021/03/20 03:35:50;;;;;;;3.88;1.33;;;;;;;16.68;36.12;102966.09;4966160;28;124701;-76
2021/03/20 03:38:33;;;;;;;3.10;1.27;;;;;;;16.67;36.17;102964.31;4966373;28;116227;-71
2021/03/20 03:41:28;;;;;;;5.15;1.00;;;;;;;16.68;36.15;102959.91;4966056;28;114646;-74
2021/03/20 03:43:55;;;;;;;2.92;1.08;;;;;;;16.65;36.10;102968.78;4959956;28;123853;-68
2021/03/20 03:46:28;;;;;;;3.05;1.17;;;;;;;16.67;36.17;102968.75;4965437;28;123087;-68
2021/03/20 03:48:57;;;;;;;5.38;1.13;;;;;;;16.65;36.06;102973.16;4964875;28;114548;-68
2021/03/20 03:51:24;;;;;;;1.73;0.90;;;;;;;16.66;36.00;102967.88;4966317;28;114089;-71
2021/03/20 03:53:51;;;;;;;2.20;1.00;;;;;;;16.66;35.96;102973.16;4966548;28;124339;-71
2021/03/20 03:56:45;;;;;;;1.92;0.90;;;;;;;16.64;36.05;102979.38;4966168;28;123822;-71
2021/03/20 03:59:52;;;;;;;3.88;1.00;;;;;;;16.64;36.12;102976.72;4971347;28;114152;-69
2021/03/20 04:02:18;;;;;;;2.55;1.00;;;;;;;16.62;36.03;102970.56;4879675;28;113643;-70
2021/03/20 04:05:21;;;;;;;3.55;1.33;;;;;;;16.63;36.11;102974.97;4895268;28;124589;-71
2021/03/20 04:08:12;;;;;;;6.45;1.35;;;;;;;16.62;35.98;102981.16;4934154;28;123699;-80
2021/03/20 04:10:41;;;;;;;1.42;1.00;;;;;;;16.60;36.16;102984.72;4964122;28;114375;-75
2021/03/20 04:13:11;;;;;;;1.27;0.90;;;;;;;16.64;36.02;102984.66;4962931;28;113092;-81
2021/03/20 04:15:44;;;;;;;1.70;1.00;;;;;;;16.60;36.12;102983.84;4964895;28;124031;-73
2021/03/20 04:18:57;;;;;;;3.37;1.30;;;;;;;16.63;35.93;102989.09;4963547;28;123917;-70
2021/03/20 04:21:23;;;;;;;3.92;1.30;;;;;;;16.59;36.07;102982.97;4932483;28;114296;-74
2021/03/20 04:24:15;;;;;;;1.55;0.90;;;;;;;16.57;36.06;102984.78;4965238;28;113566;-68
2021/03/20 04:26:56;;;;;;;2.72;1.13;;;;;;;16.59;35.95;102984.75;4928217;28;124379;-67
2021/03/20 04:29:48;;;;;;;5.32;1.08;;;;;;;16.55;36.10;102968.03;4964003;28;123950;-75
2021/03/20 04:32:23;;;;;;;2.60;1.13;;;;;;;16.57;35.80;102978.59;4962820;28;114752;-67
2021/03/20 04:35:08;;;;;;;2.70;1.05;;;;;;;16.58;35.94;102988.31;4964511;28;114933;-72
2021/03/20 04:37:38;;;;;;;3.50;1.05;;;;;;;16.57;35.81;102990.06;4963764;28;123660;-72
2021/03/20 04:40:08;;;;;;;2.53;1.25;;;;;;;16.54;36.02;102984.81;4963544;28;124152;-67
2021/03/20 04:42:37;;;;;;;2.90;1.17;;;;;;;16.54;35.90;102984.81;4965459;28;113594;-68
2021/03/20 04:45:08;;;;;;;2.13;1.00;;;;;;;16.53;36.07;102988.34;4966615;28;114247;-68
2021/03/20 04:47:38;;;;;;;7.30;1.50;;;;;;;16.53;36.11;102996.28;4964442;28;124285;-70
2021/03/20 04:50:18;;;;;;;2.90;1.08;;;;;;;16.52;35.82;102999.84;4963896;28;124081;-83
2021/03/20 04:52:47;;;;;;;2.55;1.08;;;;;;;16.49;35.97;103002.56;4964514;28;113686;-73
2021/03/20 04:55:14;;;;;;;2.50;1.30;;;;;;;16.50;36.03;103006.06;4965184;28;114160;-70
2021/03/20 04:57:59;;;;;;;2.97;1.48;;;;;;;16.52;36.02;103006.94;4965190;28;124175;-71
2021/03/20 05:00:41;;;;;;;2.22;1.20;;;;;;;16.51;35.76;103016.66;4964802;28;124131;-68
2021/03/20 05:03:33;;;;;;;3.65;1.52;;;;;;;16.50;35.98;103003.44;4947497;28;113095;-70
2021/03/20 05:06:03;;;;;;;1.83;1.27;;;;;;;16.51;35.90;103010.47;4966322;28;113682;-69
2021/03/20 05:08:44;;;;;;;4.10;1.50;;;;;;;16.57;35.90;103003.31;4965209;28;124465;-69
2021/03/20 05:11:24;;;;;;;4.20;1.15;;;;;;;16.65;35.59;103004.97;4968551;28;124014;-71
2021/03/20 05:14:00;;;;;;;2.38;1.23;;;;;;;16.59;35.77;103003.31;4965403;28;114885;-69
2021/03/20 05:16:57;;;;;;;2.95;1.23;;;;;;;16.52;36.06;103012.22;4965524;28;113955;-71
2021/03/20 05:19:26;;;;;;;4.63;1.65;;;;;;;16.52;35.96;103012.22;4963887;28;123447;-71
2021/03/20 05:21:54;;;;;;;8.23;1.73;;;;;;;16.49;35.91;103018.44;4963509;28;123936;-69
2021/03/20 05:24:28;;;;;;;2.20;1.15;;;;;;;16.49;35.98;103013.16;4963709;28;115859;-70
2021/03/20 05:26:54;;;;;;;6.18;1.70;;;;;;;16.48;35.91;103011.41;4965478;28;114725;-71
2021/03/20 05:29:20;;;;;;;3.38;1.25;;;;;;;16.50;35.87;103011.38;4971664;28;123923;-71
2021/03/20 05:31:47;;;;;;;2.65;1.27;;;;;;;16.61;35.67;103006.81;4963921;28;123858;-72
2021/03/20 05:34:43;;;;;;;2.85;1.10;;;;;;;16.68;35.38;103007.66;4967140;28;114277;-85
2021/03/20 05:37:20;;;;;;;4.95;1.20;;;;;;;16.63;35.57;103009.44;4957391;28;115646;-85
2021/03/20 05:39:46;;;;;;;3.17;1.20;;;;;;;16.63;35.52;103009.44;4964530;28;123983;-81
2021/03/20 05:42:24;;;;;;;2.00;0.90;;;;;;;16.67;35.55;103000.56;4965528;28;123456;-85
2021/03/20 05:45:01;;;;;;;4.22;1.35;;;;;;;16.67;35.46;103013.81;4965150;28;114511;-85
2021/03/20 05:47:32;;;;;;;2.55;1.13;;;;;;;16.68;35.22;103023.56;4963297;28;112967;-78
2021/03/20 05:50:07;;;;;;;2.25;1.38;;;;;;;16.72;35.25;103019.94;4963698;28;124198;-81
2021/03/20 05:52:47;;;;;;;4.38;1.10;;;;;;;16.71;35.23;103019.06;4964244;28;124261;-77
2021/03/20 05:55:47;;;;;;;1.73;0.88;;;;;;;16.69;35.24;103027.94;4965453;28;114453;-82
2021/03/20 05:58:54;;;;;;;3.40;1.00;;;;;;;16.70;35.22;103025.28;4950990;28;113426;-84
2021/03/20 06:01:24;;;;;;;2.63;1.00;;;;;;;16.71;35.18;103027.03;4964195;28;123097;-78
2021/03/20 06:04:12;;;;;;;2.05;1.00;;;;;;;16.77;34.90;103034.91;4966718;28;123147;-80
2021/03/20 06:07:02;;;;;;;1.70;1.10;;;;;;;16.75;35.09;103035.81;4966348;28;114898;-82
2021/03/20 06:09:54;;;;;;;1.77;0.98;;;;;;;16.77;35.15;103049.94;4965797;28;113754;-74
2021/03/20 06:12:41;;;;;;;2.15;1.10;;;;;;;16.82;34.94;103048.97;4965672;28;123903;-79
2021/03/20 06:15:24;;;;;;;1.58;0.95;;;;;;;16.80;35.20;103045.47;4967908;28;123815;-78
2021/03/20 06:18:08;;;;;;;1.48;0.90;;;;;;;16.82;34.95;103046.31;4967076;28;115338;-79
2021/03/20 06:20:34;;;;;;;;;;;;;;;16.84;34.99;103051.59;4967239;28;115195;-68
2021/03/20 06:23:11;;;;;;;3.13;1.13;;;;;;;16.84;34.99;103049.81;4965341;28;126293;-71
2021/03/20 06:25:53;;;;;;;4.25;1.20;;;;;;;16.86;34.94;103065.69;4964243;28;123147;-72
2021/03/20 06:28:26;;;;;;;4.20;1.20;;;;;;;16.92;35.01;103065.63;4964951;28;114519;-68
2021/03/20 06:30:59;;;;;;;3.70;1.20;;;;;;;16.94;35.04;103061.16;4964838;28;114291;-70
2021/03/20 06:33:32;;;;;;;1.23;1.08;;;;;;;16.95;34.93;103052.31;4965356;28;123025;-69
2021/03/20 06:36:08;;;;;;;2.50;1.25;;;;;;;16.97;34.84;103061.13;4970368;28;123775;-70
2021/03/20 06:38:44;;;;;;;2.80;1.20;;;;;;;17.04;34.53;103060.13;4970265;28;115197;-69
2021/03/20 06:41:19;;;;;;;4.05;1.30;;;;;;;17.09;34.78;103065.38;4954197;28;114637;-69
2021/03/20 06:43:52;;;;;;;5.28;1.00;;;;;;;17.06;34.58;103063.63;4967861;28;124017;-70
2021/03/20 06:46:25;;;;;;;2.05;1.20;;;;;;;17.08;34.80;103067.13;4970308;28;124729;-72
2021/03/20 06:48:54;;;;;;;2.95;1.10;;;;;;;17.12;34.62;103068.88;4970804;28;114425;-82
2021/03/20 06:51:20;;;;;;;2.55;1.30;;;;;;;17.16;34.50;103070.56;4970835;28;113942;-80
2021/03/20 06:54:02;;;;;;;1.48;1.05;;;;;;;17.24;34.71;103073.09;4955835;28;123122;-83
2021/03/20 06:56:30;;;;;;;3.50;1.08;;;;;;;17.27;34.47;103069.53;4971590;28;122979;-77
2021/03/20 06:58:59;;;;;;;2.33;1.00;;;;;;;17.32;34.48;103075.63;4973449;28;114277;-83
2021/03/20 07:01:38;;;;;;;1.27;0.90;;;;;;;17.37;34.57;103076.44;4975613;28;113779;-83
2021/03/20 07:04:26;;;;;;;1.65;0.95;;;;;;;17.45;34.49;103077.22;4975587;28;123609;-83
2021/03/20 07:06:52;;;;;;;2.47;1.10;;;;;;;17.51;34.03;103087.69;4976704;28;123460;-83
2021/03/20 07:09:18;;;;;;;1.80;0.90;;;;;;;17.56;34.65;103085.88;4984832;28;114850;-71
2021/03/20 07:12:12;;;;;;;1.42;1.15;;;;;;;17.60;34.26;103095.53;4991337;28;115010;-74
2021/03/20 07:14:43;;;;;;;;;;;;;;;17.66;34.09;103091.88;4993225;28;124514;-80
2021/03/20 07:17:37;;;;;;;2.10;1.15;;;;;;;17.70;33.96;103094.50;4991959;28;124049;-72
2021/03/20 07:20:13;;;;;;;1.77;1.00;;;;;;;17.79;33.88;103097.91;4993804;28;113068;-73
2021/03/20 07:22:44;;;;;;;5.22;1.30;;;;;;;17.82;33.78;103104.03;4993141;28;114698;-70
2021/03/20 07:25:13;;;;;;;2.35;1.23;;;;;;;17.87;33.84;103112.78;4991306;28;123900;-82
2021/03/20 07:27:39;;;;;;;3.03;1.20;;;;;;;17.90;33.78;103115.41;4991224;28;124563;-78
2021/03/20 07:30:28;;;;;;;2.60;1.05;;;;;;;17.96;33.51;103114.41;4991051;28;115145;-68
2021/03/20 07:32:54;;;;;;;1.85;1.20;;;;;;;18.04;33.56;103121.34;4989297;28;116156;-71
2021/03/20 07:35:20;;;;;;;2.35;1.40;;;;;;;18.08;33.43;103119.50;4987094;28;124935;-69
2021/03/20 07:37:50;;;;;;;6.28;1.85;;;;;;;18.15;33.16;103122.94;4986142;28;123857;-68
2021/03/20 07:40:19;;;;;;;2.13;1.10;;;;;;;18.22;32.98;103124.53;4977022;28;116453;-71
2021/03/20 07:42:46;;;;;;;3.63;1.40;;;;;;;18.28;32.94;103125.31;4971670;28;113984;-68
2021/03/20 07:45:18;;;;;;;3.88;1.20;;;;;;;18.36;32.97;103129.63;4971807;28;124005;-70
2021/03/20 07:47:53;;;;;;;2.95;1.42;;;;;;;18.42;32.72;103132.16;4976154;28;124112;-68
2021/03/20 07:50:23;;;;;;;1.73;1.30;;;;;;;18.46;32.59;103137.41;4976157;28;113974;-68
2021/03/20 07:53:13;;;;;;;4.00;1.30;;;;;;;18.53;32.52;103130.16;4974266;28;114283;-69
2021/03/20 07:56:18;;;;;;;4.15;1.30;;;;;;;18.60;32.42;103131.78;4969684;28;125675;-69
2021/03/20 07:58:47;;;;;;;2.03;1.30;;;;;;;18.68;32.53;103124.53;4956062;28;126422;-68
2021/03/20 08:01:19;;;;;;;4.75;1.55;;;;;;;18.72;32.59;103123.59;4960544;28;116696;-69
2021/03/20 08:03:50;;;;;;;1.77;1.23;;;;;;;18.79;32.48;103124.31;4968777;28;114776;-81
2021/03/20 08:06:20;;;;;;;2.55;1.20;;;;;;;18.85;32.10;103110.91;4968985;28;122956;-82
2021/03/20 08:08:46;;;;;;;3.97;1.27;;;;;;;18.89;32.13;103105.47;4968756;28;123590;-78
2021/03/20 08:11:27;;;;;;;2.40;1.35;;;;;;;18.98;32.26;103114.16;4969013;28;116588;-78
2021/03/20 08:13:57;;;;;;;4.85;1.50;;;;;;;19.15;32.10;103110.22;4944241;28;112914;-80
2021/03/20 08:16:24;;;;;;;2.83;1.50;;;;;;;19.16;31.86;103119.06;4967730;28;124136;-79
2021/03/20 08:18:54;;;;;;;3.30;1.23;;;;;;;19.27;31.80;103114.38;4967392;28;124798;-80
2021/03/20 08:21:37;;;;;;;1.92;1.30;;;;;;;19.47;31.51;103109.41;4969484;28;114047;-80
2021/03/20 08:24:25;;;;;;;2.90;1.57;;;;;;;20.22;30.40;103111.97;4960786;28;113245;-77
2021/03/20 08:27:21;;;;;;;1.70;1.58;;;;;;;22.59;26.57;103106.03;4967371;28;124245;-73
2021/03/20 08:30:06;;;;;;;2.35;1.65;;;;;;;24.84;23.58;103102.72;4967240;28;124246;-82
2021/03/20 08:32:52;;;;;;;2.60;1.98;;;;;;;25.80;22.16;103108.72;4969123;28;114676;-81
2021/03/20 08:35:34;;;;;;;2.75;1.60;;;;;;;25.90;21.90;103105.56;4968572;28;114209;-81
2021/03/20 08:38:19;;;;;;;2.25;1.02;;;;;;;26.12;21.65;103100.78;4967173;28;124747;-74
2021/03/20 08:41:20;;;;;;;1.77;1.10;;;;;;;26.21;21.80;103105.69;4966024;28;123364;-77
2021/03/20 08:44:24;;;;;;;5.57;1.20;;;;;;;25.52;22.43;103105.69;4950969;28;114496;-76
2021/03/20 08:47:08;;;;;;;4.28;1.40;;;;;;;25.62;22.29;103112.34;4967371;28;114402;-76
2021/03/20 08:50:18;;;;;;;2.40;1.45;;;;;;;25.26;22.42;103109.69;4966702;28;124869;-76
2021/03/20 08:53:07;;;;;;;2.53;1.33;;;;;;;25.45;22.50;103104.25;4965703;28;124469;-74
2021/03/20 08:55:40;;;;;;;3.63;1.40;;;;;;;25.45;22.38;103106.94;4964548;28;115309;-74
2021/03/20 08:58:34;;;;;;;1.67;1.25;;;;;;;25.30;22.54;103116.63;4966080;28;115779;-78
2021/03/20 09:01:23;;;;;;;2.05;1.13;;;;;;;25.03;23.09;103118.88;4963078;28;124381;-76
2021/03/20 09:03:53;;;;;;;4.20;1.73;;;;;;;25.17;22.58;103113.69;4969426;28;122842;-74
2021/03/20 09:06:29;;;;;;;6.35;1.52;;;;;;;25.34;22.83;103115.53;4965111;28;114713;-74
2021/03/20 09:09:00;;;;;;;2.13;1.20;;;;;;;25.64;22.70;103123.03;4963121;28;113862;-72
2021/03/20 09:11:37;;;;;;;2.88;1.77;;;;;;;24.81;23.79;103127.06;4963206;28;123418;-70
2021/03/20 09:14:13;;;;;;;2.17;1.25;;;;;;;21.30;28.93;103134.63;4964660;28;123966;-74
2021/03/20 09:17:06;;;;;;;2.17;1.40;;;;;;;19.99;31.42;103137.47;4947197;28;114492;-70
2021/03/20 09:19:39;;;;;;;3.10;1.75;;;;;;;19.92;31.93;103129.66;4959692;28;113938;-71
2021/03/20 09:22:10;;;;;;;6.57;2.00;;;;;;;19.80;32.20;103122.84;4957840;28;123867;-70
2021/03/20 09:24:48;;;;;;;4.45;2.00;;;;;;;19.75;31.91;103116.78;4946514;28;124723;-69
2021/03/20 09:27:54;;;;;;;3.70;1.80;;;;;;;19.73;32.20;103113.28;4963708;28;115970;-69
2021/03/20 09:30:31;;;;;;;5.07;2.65;;;;;;;19.93;31.71;103118.06;4961642;28;114279;-68
2021/03/20 09:33:00;;;;;;;4.68;2.40;;;;;;;19.97;31.90;103115.31;4961386;28;124250;-68
2021/03/20 09:35:45;;;;;;;3.97;2.00;;;;;;;20.04;31.70;103116.00;4962464;28;124082;-68
2021/03/20 09:38:13;;;;;;;4.07;1.92;;;;;;;19.96;31.93;103112.69;4961625;28;115576;-77
2021/03/20 09:40:41;;;;;;;4.82;2.10;;;;;;;20.00;31.42;103122.34;4964414;28;113661;-69
2021/03/20 09:43:38;;;;;;;4.88;1.77;;;;;;;20.13;31.59;103128.22;4962546;28;123869;-71
2021/03/20 09:46:46;;;;;;;4.13;1.70;;;;;;;20.23;31.53;103122.59;4960988;28;124530;-69
2021/03/20 09:49:13;;;;;;;3.95;2.38;;;;;;;20.64;30.69;103128.59;4956929;28;114693;-69
2021/03/20 09:51:48;;;;;;;8.70;2.55;;;;;;;20.66;30.45;103133.88;4959192;28;115471;-72
2021/03/20 09:54:28;;;;;;;6.07;3.00;;;;;;;20.52;30.14;103124.47;4960633;28;123818;-69
2021/03/20 09:59:42;;;;;;;2.92;2.05;;;;;;;20.30;31.22;103128.63;4962586;28;114641;-70
2021/03/20 10:02:11;;;;;;;5.05;1.95;;;;;;;20.22;31.00;103117.31;4959624;28;115331;-72
2021/03/20 10:04:57;;;;;;;3.85;1.88;;;;;;;20.08;31.10;103120.34;4964150;28;122492;-69
2021/03/20 10:07:23;;;;;;;5.13;2.13;;;;;;;19.95;31.31;103114.47;4966687;28;123921;-70
2021/03/20 10:09:49;;;;;;;2.70;1.70;;;;;;;19.88;31.24;103120.88;4969474;28;114941;-68
2021/03/20 10:12:19;;;;;;;4.75;2.53;;;;;;;19.74;31.42;103121.22;4968876;28;113993;-69
2021/03/20 10:14:55;;;;;;;2.67;1.88;;;;;;;19.59;31.77;103120.72;4966630;28;123944;-75
2021/03/20 10:17:27;;;;;;;4.20;2.10;;;;;;;19.47;31.90;103120.06;4962683;28;124073;-75
2021/03/20 10:20:05;;;;;;;3.90;2.30;;;;;;;19.43;31.78;103117.53;4969131;28;114428;-75
2021/03/20 10:22:34;;;;;;;7.63;2.30;;;;;;;19.51;31.54;103112.03;4960712;28;113301;-76
2021/03/20 10:25:02;;;;;;;2.90;1.90;;;;;;;19.53;31.54;103113.75;4971525;28;124214;-74
2021/03/20 10:27:39;;;;;;;2.00;1.52;;;;;;;19.66;31.46;103112.53;4971609;28;123953;-75
2021/03/20 10:30:23;;;;;;;2.88;1.70;;;;;;;19.69;31.20;103106.25;4968045;28;114661;-75
2021/03/20 10:33:04;;;;;;;3.47;1.80;;;;;;;19.63;31.49;103103.78;4951478;28;114260;-68
2021/03/20 10:35:33;;;;;;;7.32;3.53;;;;;;;19.73;31.41;103105.28;4969964;28;124729;-69
2021/03/20 10:38:26;;;;;;;9.00;2.65;;;;;;;19.77;31.10;103104.28;4970235;28;124476;-69
2021/03/20 10:41:05;;;;;;;10.90;3.03;;;;;;;19.81;31.22;103097.94;4961019;28;114992;-68
2021/03/20 10:43:41;;;;;;;7.07;3.45;;;;;;;19.87;31.33;103100.47;4969857;28;115861;-70
2021/03/20 10:46:07;;;;;;;21.63;3.58;;;;;;;19.90;31.26;103091.50;4970239;28;124214;-69
2021/03/20 10:48:33;;;;;;;13.63;3.80;;;;;;;19.89;31.10;103087.97;4970344;28;124275;-68
2021/03/20 10:51:06;;;;;;;9.95;3.47;;;;;;;19.94;30.86;103094.06;4968600;28;114665;-73
2021/03/20 10:53:41;;;;;;;12.23;2.90;;;;;;;19.94;30.94;103096.72;4971139;28;114169;-75
2021/03/20 10:56:34;;;;;;;9.70;3.65;;;;;;;19.91;31.05;103101.25;4969431;28;124188;-73
2021/03/20 10:59:10;;;;;;;14.00;4.30;;;;;;;19.90;30.96;103088.84;4970739;28;123964;-75
2021/03/20 11:01:37;;;;;;;13.50;3.45;;;;;;;19.89;31.15;103087.97;4971659;28;113248;-76
2021/03/20 11:04:03;;;;;;;9.50;3.63;;;;;;;19.98;30.58;103086.84;4971375;28;113947;-74
2021/03/20 11:06:31;;;;;;;11.80;3.97;;;;;;;19.95;30.72;103087.81;4970419;28;124542;-75
2021/03/20 11:09:21;;;;;;;12.73;3.63;;;;;;;19.98;30.63;103086.84;4971024;28;123984;-75
2021/03/20 11:11:48;;;;;;;13.45;4.10;;;;;;;19.86;30.47;103082.72;4962631;28;114559;-75
2021/03/20 11:14:19;;;;;;;9.40;3.53;;;;;;;19.91;30.22;103085.25;4971713;28;114072;-75
2021/03/20 11:16:48;;;;;;;7.53;3.85;;;;;;;19.93;30.19;103076.34;4958940;28;124764;-73
2021/03/20 11:19:38;;;;;;;11.35;3.25;;;;;;;20.01;30.25;103076.97;4971219;28;123008;-74
2021/03/20 11:22:41;;;;;;;12.68;3.40;;;;;;;20.00;30.41;103064.56;4966159;28;114030;-73
2021/03/20 11:25:20;;;;;;;6.88;3.15;;;;;;;20.05;29.82;103077.78;4931701;28;114001;-67
2021/03/20 11:28:00;;;;;;;9.07;3.03;;;;;;;20.16;30.16;103073.03;4941531;28;124959;-68
2021/03/20 11:30:33;;;;;;;10.27;2.95;;;;;;;20.29;29.83;103070.88;4960927;28;124199;-75
2021/03/20 11:33:01;;;;;;;9.10;3.33;;;;;;;20.47;30.00;103058.81;4964437;28;115473;-74
2021/03/20 11:35:31;;;;;;;8.23;3.00;;;;;;;20.48;30.24;103058.78;4964605;28;114764;-73
2021/03/20 11:38:01;;;;;;;6.13;3.25;;;;;;;20.32;30.26;103055.66;4964586;28;124494;-72
2021/03/20 11:40:53;;;;;;;15.80;3.92;;;;;;;20.27;29.90;103064.69;4961733;28;123507;-73
2021/03/20 11:43:37;;;;;;;10.20;3.35;;;;;;;20.29;30.05;103057.56;4954869;28;114276;-74
2021/03/20 11:46:17;;;;;;;10.40;2.80;;;;;;;20.41;30.04;103049.19;4966154;28;115265;-74
2021/03/20 11:49:15;;;;;;;8.85;3.50;;;;;;;20.51;30.36;103047.16;4964935;28;124539;-72
2021/03/20 11:51:47;;;;;;;8.60;2.35;;;;;;;20.53;30.09;103050.66;4925116;28;124197;-72
2021/03/20 11:54:28;;;;;;;6.18;2.53;;;;;;;20.47;30.17;103043.69;4963246;28;115661;-70
2021/03/20 11:57:32;;;;;;;4.80;2.42;;;;;;;20.50;30.17;103048.97;4966113;28;114178;-76
2021/03/20 11:59:59;;;;;;;8.55;2.55;;;;;;;20.52;29.87;103036.44;4965782;28;124431;-72
2021/03/20 12:02:25;;;;;;;4.18;2.50;;;;;;;20.59;29.98;103037.97;4963019;28;123904;-72